createdAt,value
2023-03-03T00:00:59.938Z,51.07
2023-03-03T00:03:27.860Z,51.09
2023-03-03T00:05:54.624Z,51.00
2023-03-03T00:08:21.139Z,50.91
2023-03-03T00:10:48.095Z,51.00
2023-03-03T00:13:14.725Z,50.85
2023-03-03T00:15:42.219Z,50.61
2023-03-03T00:18:09.456Z,50.65
2023-03-03T00:20:36.043Z,50.63
2023-03-03T00:23:03.551Z,50.71
2023-03-03T00:25:30.623Z,50.68
2023-03-03T00:27:58.070Z,50.52
2023-03-03T00:30:25.493Z,50.52
2023-03-03T00:32:52.106Z,50.69
2023-03-03T00:35:19.512Z,50.30
2023-03-03T00:37:46.948Z,50.31
2023-03-03T00:40:14.489Z,50.47
2023-03-03T00:42:42.237Z,50.20
2023-03-03T00:45:11.006Z,50.53
2023-03-03T00:47:38.149Z,50.29
2023-03-03T00:50:05.922Z,50.46
2023-03-03T00:52:33.406Z,50.41
2023-03-03T00:55:01.038Z,50.32
2023-03-03T00:57:28.737Z,50.33
2023-03-03T00:59:56.076Z,50.34
2023-03-03T01:02:23.037Z,50.30
2023-03-03T01:04:49.378Z,50.18
2023-03-03T01:07:16.037Z,50.13
2023-03-03T01:09:42.422Z,50.03
2023-03-03T01:12:09.377Z,50.35
2023-03-03T01:14:35.752Z,50.30
2023-03-03T01:17:02.301Z,50.20
2023-03-03T01:19:28.936Z,50.07
2023-03-03T01:21:55.383Z,50.07
2023-03-03T01:24:22.211Z,50.04
2023-03-03T01:26:48.624Z,50.23
2023-03-03T01:29:14.939Z,50.06
2023-03-03T01:31:41.629Z,50.08
2023-03-03T01:34:08.066Z,49.94
2023-03-03T01:36:34.604Z,50.07
2023-03-03T01:39:01.396Z,50.13
2023-03-03T01:41:27.976Z,50.07
2023-03-03T01:43:54.518Z,50.13
2023-03-03T01:46:20.942Z,50.03
2023-03-03T01:48:47.843Z,49.98
2023-03-03T01:51:14.213Z,49.96
2023-03-03T01:53:40.725Z,49.94
2023-03-03T01:56:07.378Z,49.85
2023-03-03T01:58:33.731Z,49.71
2023-03-03T02:01:00.158Z,49.90
2023-03-03T02:03:27.609Z,49.82
2023-03-03T02:05:54.037Z,49.97
2023-03-03T02:08:21.288Z,49.75
2023-03-03T02:10:48.124Z,49.95
2023-03-03T02:13:14.837Z,49.89
2023-03-03T02:15:41.148Z,49.88
2023-03-03T02:18:07.840Z,49.96
2023-03-03T02:20:34.208Z,49.84
2023-03-03T02:23:00.659Z,49.75
2023-03-03T02:25:27.149Z,49.78
2023-03-03T02:27:54.090Z,49.62
2023-03-03T02:30:20.441Z,49.86
2023-03-03T02:32:46.926Z,49.80
2023-03-03T02:35:13.387Z,49.75
2023-03-03T02:37:39.861Z,49.62
2023-03-03T02:40:06.263Z,49.91
2023-03-03T02:42:33.039Z,49.72
2023-03-03T02:44:59.407Z,49.94
2023-03-03T02:47:25.776Z,50.06
2023-03-03T02:49:52.143Z,49.92
2023-03-03T02:52:18.581Z,49.77
2023-03-03T02:54:45.440Z,49.67
2023-03-03T02:57:11.965Z,49.76
2023-03-03T02:59:38.437Z,49.80
2023-03-03T03:02:04.793Z,49.59
2023-03-03T03:04:31.191Z,49.80
2023-03-03T03:06:57.896Z,49.79
2023-03-03T03:09:24.466Z,49.58
2023-03-03T03:11:51.050Z,49.83
2023-03-03T03:14:17.458Z,49.57
2023-03-03T03:16:43.932Z,49.60
2023-03-03T03:19:10.428Z,49.66
2023-03-03T03:21:37.121Z,49.68
2023-03-03T03:24:03.565Z,49.67
2023-03-03T03:26:29.906Z,49.46
2023-03-03T03:28:56.447Z,49.69
2023-03-03T03:31:22.768Z,49.70
2023-03-03T03:33:49.170Z,49.62
2023-03-03T03:36:16.925Z,49.49
2023-03-03T03:38:43.543Z,49.65
2023-03-03T03:41:10.271Z,49.60
2023-03-03T03:43:36.741Z,49.45
2023-03-03T03:46:03.449Z,49.36
2023-03-03T03:48:29.971Z,49.54
2023-03-03T03:50:56.414Z,49.59
2023-03-03T03:53:22.745Z,49.58
2023-03-03T03:55:49.370Z,49.51
2023-03-03T03:58:15.788Z,49.52
2023-03-03T04:00:42.311Z,49.55
2023-03-03T04:03:09.291Z,49.57
2023-03-03T04:05:36.133Z,49.36
2023-03-03T04:08:02.596Z,49.54
2023-03-03T04:10:29.538Z,49.46
2023-03-03T04:12:56.314Z,49.36
2023-03-03T04:15:22.740Z,49.37
2023-03-03T04:17:49.094Z,49.64
2023-03-03T04:20:15.534Z,49.42
2023-03-03T04:22:42.018Z,49.48
2023-03-03T04:25:09.297Z,49.63
2023-03-03T04:27:35.740Z,49.43
2023-03-03T04:30:02.594Z,49.52
2023-03-03T04:32:29.059Z,49.48
2023-03-03T04:35:05.596Z,49.69
2023-03-03T04:37:33.968Z,49.44
2023-03-03T04:40:00.518Z,49.51
2023-03-03T04:42:27.347Z,49.61
2023-03-03T04:44:54.025Z,49.59
2023-03-03T04:47:20.409Z,49.46
2023-03-03T04:49:46.695Z,49.60
2023-03-03T04:52:13.043Z,49.56
2023-03-03T04:54:39.683Z,49.62
2023-03-03T04:57:06.144Z,49.58
2023-03-03T04:59:32.517Z,49.47
2023-03-03T05:01:58.914Z,49.47
2023-03-03T05:04:26.037Z,49.51
2023-03-03T05:06:52.670Z,49.58
2023-03-03T05:09:19.049Z,49.62
2023-03-03T05:11:45.739Z,49.45
2023-03-03T05:14:12.112Z,49.65
2023-03-03T05:16:38.492Z,49.47
2023-03-03T05:19:04.833Z,49.75
2023-03-03T05:21:31.195Z,49.57
2023-03-03T05:23:57.944Z,49.57
2023-03-03T05:26:24.327Z,49.55
2023-03-03T05:28:50.968Z,49.56
2023-03-03T05:31:17.729Z,49.60
2023-03-03T05:33:44.190Z,49.65
2023-03-03T05:36:10.575Z,49.53
2023-03-03T05:38:37.017Z,49.55
2023-03-03T05:41:03.648Z,49.55
2023-03-03T05:43:30.080Z,49.67
2023-03-03T05:45:56.399Z,49.66
2023-03-03T05:48:23.192Z,49.57
2023-03-03T05:50:49.607Z,49.50
2023-03-03T05:53:16.011Z,49.71
2023-03-03T05:55:42.691Z,49.79
2023-03-03T05:58:09.521Z,49.85
2023-03-03T06:00:35.979Z,49.59
2023-03-03T06:03:02.446Z,49.72
2023-03-03T06:05:28.836Z,49.58
2023-03-03T06:07:55.170Z,49.62
2023-03-03T06:10:21.527Z,49.68
2023-03-03T06:12:47.947Z,49.59
2023-03-03T06:15:14.279Z,49.71
2023-03-03T06:17:40.715Z,49.82
2023-03-03T06:20:07.084Z,49.77
2023-03-03T06:22:33.501Z,49.80
2023-03-03T06:24:59.886Z,49.76
2023-03-03T06:27:26.436Z,49.75
2023-03-03T06:29:53.456Z,49.79
2023-03-03T06:32:19.845Z,49.61
2023-03-03T06:34:46.703Z,49.75
2023-03-03T06:37:13.107Z,49.72
2023-03-03T06:39:40.043Z,49.71
2023-03-03T06:42:06.427Z,49.83
2023-03-03T06:44:32.827Z,49.63
2023-03-03T06:46:59.318Z,49.82
2023-03-03T06:49:25.667Z,49.71
2023-03-03T06:51:52.069Z,49.94
2023-03-03T06:54:19.165Z,49.94
2023-03-03T06:56:45.422Z,49.79
2023-03-03T06:59:11.986Z,50.02
2023-03-03T07:01:38.391Z,49.85
2023-03-03T07:04:04.815Z,49.85
2023-03-03T07:06:31.271Z,49.95
2023-03-03T07:08:58.153Z,49.89
2023-03-03T07:11:24.582Z,50.07
2023-03-03T07:13:51.779Z,49.80
2023-03-03T07:16:18.589Z,50.09
2023-03-03T07:18:45.006Z,49.94
2023-03-03T07:21:11.323Z,50.02
2023-03-03T07:23:37.783Z,49.93
2023-03-03T07:26:04.254Z,50.09
2023-03-03T07:28:30.635Z,50.07
2023-03-03T07:30:57.386Z,50.10
2023-03-03T07:33:23.744Z,50.09
2023-03-03T07:35:50.144Z,49.91
2023-03-03T07:38:16.529Z,49.75
2023-03-03T07:40:43.052Z,49.61
2023-03-03T07:43:09.426Z,49.62
2023-03-03T07:45:36.027Z,49.64
2023-03-03T07:48:02.489Z,49.76
2023-03-03T07:50:28.906Z,49.67
2023-03-03T07:52:55.314Z,49.67
2023-03-03T07:55:21.672Z,50.06
2023-03-03T07:57:48.108Z,49.91
2023-03-03T08:00:14.853Z,49.71
2023-03-03T08:02:41.301Z,49.68
2023-03-03T08:05:08.259Z,49.77
2023-03-03T08:07:35.033Z,50.04
2023-03-03T08:10:01.412Z,49.79
2023-03-03T08:12:28.098Z,49.74
2023-03-03T08:14:54.455Z,50.03
2023-03-03T08:17:20.904Z,49.94
2023-03-03T08:19:47.493Z,49.90
2023-03-03T08:22:13.962Z,49.81
2023-03-03T08:24:40.420Z,49.94
2023-03-03T08:27:07.130Z,49.80
2023-03-03T08:29:33.443Z,50.00
2023-03-03T08:32:00.101Z,50.07
2023-03-03T08:34:26.725Z,49.94
2023-03-03T08:36:53.068Z,50.03
2023-03-03T08:39:19.764Z,49.97
2023-03-03T08:41:46.323Z,50.25
2023-03-03T08:44:13.041Z,50.13
2023-03-03T08:46:39.433Z,50.28
2023-03-03T08:49:05.944Z,50.10
2023-03-03T08:51:32.307Z,50.29
2023-03-03T08:53:58.671Z,50.13
2023-03-03T08:56:25.312Z,50.09
2023-03-03T08:59:02.288Z,50.27
2023-03-03T09:01:29.141Z,50.48
2023-03-03T09:03:55.600Z,50.32
2023-03-03T09:06:21.984Z,50.48
2023-03-03T09:08:48.518Z,50.40
2023-03-03T09:11:15.188Z,50.28
2023-03-03T09:13:41.919Z,50.27
2023-03-03T09:16:08.616Z,50.54
2023-03-03T09:18:35.780Z,50.47
2023-03-03T09:21:02.217Z,50.26
2023-03-03T09:23:28.589Z,50.49
2023-03-03T09:25:55.113Z,50.31
2023-03-03T09:28:21.505Z,50.40
2023-03-03T09:30:48.035Z,50.47
2023-03-03T09:33:14.480Z,50.46
2023-03-03T09:35:41.396Z,50.53
2023-03-03T09:38:08.028Z,50.56
2023-03-03T09:40:34.660Z,50.55
2023-03-03T09:43:01.206Z,50.54
2023-03-03T09:45:27.939Z,50.66
2023-03-03T09:47:54.640Z,50.56
2023-03-03T09:50:21.803Z,50.46
2023-03-03T09:52:48.192Z,50.76
2023-03-03T09:55:14.626Z,50.47
2023-03-03T09:57:41.183Z,50.72
2023-03-03T10:00:07.890Z,50.52
2023-03-03T10:02:34.349Z,50.55
2023-03-03T10:05:01.534Z,50.68
2023-03-03T10:07:28.287Z,50.53
2023-03-03T10:09:55.496Z,50.50
2023-03-03T10:12:21.897Z,50.50
2023-03-03T10:14:48.498Z,50.94
2023-03-03T10:17:14.856Z,50.75
2023-03-03T10:19:41.266Z,50.63
2023-03-03T10:22:07.655Z,50.46
2023-03-03T10:24:34.042Z,50.53
2023-03-03T10:27:13.164Z,50.46
2023-03-03T10:29:40.733Z,50.66
2023-03-03T10:32:07.168Z,50.27
2023-03-03T10:34:33.675Z,50.53
2023-03-03T10:37:00.095Z,50.44
2023-03-03T10:39:27.169Z,50.40
2023-03-03T10:41:53.508Z,50.41
2023-03-03T10:44:19.917Z,50.54
2023-03-03T10:46:46.723Z,50.42
2023-03-03T10:49:13.456Z,50.35
2023-03-03T10:51:40.104Z,50.31
2023-03-03T10:54:06.536Z,50.32
2023-03-03T10:56:40.302Z,50.24
2023-03-03T10:59:17.114Z,50.43
2023-03-03T11:01:43.542Z,50.23
2023-03-03T11:04:10.036Z,50.50
2023-03-03T11:06:37.506Z,50.52
2023-03-03T11:09:04.324Z,50.27
2023-03-03T11:11:30.732Z,50.43
2023-03-03T11:13:57.777Z,50.40
2023-03-03T11:16:24.272Z,50.34
2023-03-03T11:18:50.675Z,50.33
2023-03-03T11:21:17.575Z,50.30
2023-03-03T11:23:44.089Z,50.56
2023-03-03T11:26:10.824Z,50.38
2023-03-03T11:28:37.850Z,50.35
2023-03-03T11:31:04.777Z,50.40
2023-03-03T11:33:31.284Z,50.36
2023-03-03T11:35:57.705Z,50.22
2023-03-03T11:38:24.131Z,50.48
2023-03-03T11:40:50.939Z,50.57
2023-03-03T11:43:30.062Z,50.55
2023-03-03T11:46:02.062Z,50.70
2023-03-03T11:48:28.559Z,50.39
2023-03-03T11:50:55.110Z,50.67
2023-03-03T11:53:21.928Z,50.54
2023-03-03T11:55:48.323Z,50.71
2023-03-03T11:58:14.734Z,50.53
2023-03-03T12:00:41.126Z,50.56
2023-03-03T12:03:07.580Z,50.84
2023-03-03T12:05:34.171Z,50.83
2023-03-03T12:08:00.986Z,50.80
2023-03-03T12:10:27.300Z,50.66
2023-03-03T12:12:53.608Z,50.76
2023-03-03T12:15:20.170Z,50.74
2023-03-03T12:17:49.469Z,50.85
2023-03-03T12:20:16.845Z,51.02
2023-03-03T12:22:43.337Z,50.68
2023-03-03T12:25:09.953Z,50.98
2023-03-03T12:27:36.361Z,51.00
2023-03-03T12:30:05.157Z,50.81
2023-03-03T12:32:31.975Z,50.72
2023-03-03T12:34:58.368Z,50.86
2023-03-03T12:37:25.449Z,50.75
2023-03-03T12:39:52.317Z,50.83
2023-03-03T12:42:18.714Z,50.86
2023-03-03T12:44:45.188Z,50.83
2023-03-03T12:47:11.578Z,50.76
2023-03-03T12:49:44.126Z,50.94
2023-03-03T12:52:11.564Z,50.89
2023-03-03T12:54:37.970Z,50.88
2023-03-03T12:57:04.500Z,50.84
2023-03-03T12:59:30.920Z,51.13
2023-03-03T13:01:57.382Z,50.92
2023-03-03T13:04:23.914Z,51.10
2023-03-03T13:06:50.958Z,51.07
2023-03-03T13:09:17.788Z,51.08
2023-03-03T13:11:44.123Z,51.21
2023-03-03T13:14:10.614Z,51.10
2023-03-03T13:16:41.612Z,51.13
2023-03-03T13:19:08.322Z,51.17
2023-03-03T13:21:35.388Z,50.86
2023-03-03T13:24:01.722Z,51.12
2023-03-03T13:26:30.363Z,50.92
2023-03-03T13:28:58.080Z,50.94
2023-03-03T13:31:24.902Z,51.27
2023-03-03T13:33:52.082Z,51.26
2023-03-03T13:36:18.589Z,51.14
2023-03-03T13:38:45.075Z,51.36
2023-03-03T13:41:11.490Z,51.36
2023-03-03T13:43:38.079Z,51.21
2023-03-03T13:46:04.502Z,51.28
2023-03-03T13:48:31.243Z,51.21
2023-03-03T13:50:57.646Z,51.15
2023-03-03T13:53:24.429Z,51.19
2023-03-03T13:55:50.803Z,51.18
2023-03-03T13:58:17.170Z,51.25
2023-03-03T14:00:44.177Z,51.23
2023-03-03T14:03:10.807Z,51.38
2023-03-03T14:05:37.161Z,51.47
2023-03-03T14:08:03.589Z,51.43
2023-03-03T14:10:30.008Z,51.41
2023-03-03T14:12:56.406Z,51.30
2023-03-03T14:15:22.775Z,51.42
2023-03-03T14:17:49.240Z,51.30
2023-03-03T14:20:15.644Z,51.50
2023-03-03T14:22:42.054Z,51.35
2023-03-03T14:25:08.533Z,51.51
2023-03-03T14:27:35.638Z,51.41
2023-03-03T14:30:02.443Z,51.51
2023-03-03T14:32:44.448Z,51.37
2023-03-03T14:35:11.484Z,51.68
2023-03-03T14:37:38.069Z,51.49
2023-03-03T14:40:04.444Z,51.58
2023-03-03T14:42:31.529Z,51.41
2023-03-03T14:44:58.487Z,51.50
2023-03-03T14:47:25.050Z,51.35
2023-03-03T14:49:51.589Z,51.47
2023-03-03T14:52:18.032Z,51.51
2023-03-03T14:54:44.806Z,51.58
2023-03-03T14:57:11.265Z,51.61
2023-03-03T14:59:37.688Z,51.48
2023-03-03T15:02:04.119Z,51.64
2023-03-03T15:04:31.209Z,51.64
2023-03-03T15:06:57.733Z,51.55
2023-03-03T15:09:24.106Z,51.51
2023-03-03T15:11:50.516Z,51.48
2023-03-03T15:14:16.999Z,51.56
2023-03-03T15:16:43.452Z,51.57
2023-03-03T15:19:09.800Z,51.79
2023-03-03T15:21:36.203Z,51.71
2023-03-03T15:24:02.634Z,51.64
2023-03-03T15:26:29.519Z,51.76
2023-03-03T15:28:56.348Z,51.52
2023-03-03T15:31:22.784Z,51.53
2023-03-03T15:33:49.505Z,51.64
2023-03-03T15:36:15.974Z,51.45
2023-03-03T15:38:42.331Z,51.73
2023-03-03T15:41:08.746Z,51.99
2023-03-03T15:43:35.612Z,51.64
2023-03-03T15:46:02.329Z,51.58
2023-03-03T15:48:29.249Z,51.68
2023-03-03T15:50:56.070Z,51.73
2023-03-03T15:53:22.438Z,51.75
2023-03-03T15:55:49.591Z,51.67
2023-03-03T15:58:16.865Z,51.65
2023-03-03T16:00:43.291Z,51.55
2023-03-03T16:03:09.696Z,51.59
2023-03-03T16:05:36.082Z,51.75
2023-03-03T16:08:02.533Z,51.60
2023-03-03T16:10:29.370Z,51.81
2023-03-03T16:12:55.753Z,51.64
2023-03-03T16:15:22.700Z,51.78
2023-03-03T16:17:49.235Z,51.80
2023-03-03T16:20:15.551Z,51.73
2023-03-03T16:22:42.016Z,51.96
2023-03-03T16:25:08.432Z,51.96
2023-03-03T16:27:35.270Z,51.67
2023-03-03T16:30:01.683Z,51.62
2023-03-03T16:32:28.056Z,51.78
2023-03-03T16:34:55.201Z,51.70
2023-03-03T16:37:21.621Z,51.80
2023-03-03T16:39:47.956Z,51.84
2023-03-03T16:42:14.262Z,51.86
2023-03-03T16:44:40.639Z,51.78
2023-03-03T16:47:07.026Z,51.84
2023-03-03T16:49:33.766Z,51.77
2023-03-03T16:52:00.150Z,51.82
2023-03-03T16:54:26.575Z,51.72
2023-03-03T16:56:53.027Z,51.88
2023-03-03T16:59:19.464Z,51.76
2023-03-03T17:01:45.871Z,51.79
2023-03-03T17:04:15.234Z,51.87
2023-03-03T17:06:41.776Z,51.65
2023-03-03T17:09:08.194Z,51.75
2023-03-03T17:11:34.592Z,51.74
2023-03-03T17:14:01.275Z,51.80
2023-03-03T17:16:27.733Z,52.11
2023-03-03T17:18:54.074Z,51.87
2023-03-03T17:21:20.617Z,51.67
2023-03-03T17:23:47.225Z,51.78
2023-03-03T17:26:13.909Z,51.80
2023-03-03T17:28:40.516Z,51.96
2023-03-03T17:31:07.120Z,51.90
2023-03-03T17:33:33.532Z,51.95
2023-03-03T17:36:00.425Z,51.80
2023-03-03T17:38:27.585Z,51.78
2023-03-03T17:40:54.852Z,52.07
2023-03-03T17:43:21.899Z,51.97
2023-03-03T17:45:48.519Z,51.85
2023-03-03T17:48:15.004Z,51.91
2023-03-03T17:50:41.388Z,51.96
2023-03-03T17:53:08.325Z,51.94
2023-03-03T17:55:34.706Z,51.81
2023-03-03T17:58:01.479Z,51.95
2023-03-03T18:00:27.978Z,51.81
2023-03-03T18:02:54.405Z,51.90
2023-03-03T18:05:21.069Z,51.97
2023-03-03T18:07:47.514Z,51.83
2023-03-03T18:10:13.954Z,51.79
2023-03-03T18:12:40.424Z,51.91
2023-03-03T18:15:07.514Z,52.05
2023-03-03T18:17:34.337Z,52.09
2023-03-03T18:20:00.744Z,51.77
2023-03-03T18:22:28.004Z,51.86
2023-03-03T18:24:54.378Z,52.12
2023-03-03T18:27:21.368Z,51.90
2023-03-03T18:29:47.869Z,52.05
2023-03-03T18:32:14.301Z,51.87
2023-03-03T18:34:40.712Z,52.17
2023-03-03T18:37:08.017Z,51.98
2023-03-03T18:39:34.858Z,52.01
2023-03-03T18:42:01.874Z,52.12
2023-03-03T18:44:28.253Z,52.13
2023-03-03T18:46:54.717Z,52.08
2023-03-03T18:49:21.720Z,52.08
2023-03-03T18:51:48.348Z,52.02
2023-03-03T18:54:14.731Z,52.14
2023-03-03T18:56:41.138Z,52.15
2023-03-03T18:59:07.843Z,52.18
2023-03-03T19:01:34.247Z,52.00
2023-03-03T19:04:00.677Z,52.09
2023-03-03T19:06:27.796Z,51.92
2023-03-03T19:08:54.756Z,52.15
2023-03-03T19:11:21.650Z,52.09
2023-03-03T19:13:48.034Z,52.00
2023-03-03T19:16:14.844Z,52.11
2023-03-03T19:18:41.329Z,52.05
2023-03-03T19:21:08.018Z,52.03
2023-03-03T19:23:34.838Z,52.02
2023-03-03T19:26:01.637Z,52.06
2023-03-03T19:28:28.135Z,51.99
2023-03-03T19:30:54.667Z,52.03
2023-03-03T19:33:21.312Z,52.26
2023-03-03T19:35:48.260Z,52.02
2023-03-03T19:38:14.730Z,52.12
2023-03-03T19:40:41.140Z,52.17
2023-03-03T19:43:08.345Z,52.21
2023-03-03T19:45:34.941Z,52.16
2023-03-03T19:48:01.384Z,52.12
2023-03-03T19:50:28.284Z,52.15
2023-03-03T19:52:55.139Z,52.65
2023-03-03T19:55:21.911Z,52.03
2023-03-03T19:57:49.048Z,52.01
2023-03-03T20:00:15.339Z,51.97
2023-03-03T20:02:41.740Z,52.16
2023-03-03T20:05:08.347Z,51.97
2023-03-03T20:07:34.933Z,52.16
2023-03-03T20:10:01.348Z,52.18
2023-03-03T20:12:28.767Z,52.06
2023-03-03T20:14:55.393Z,52.08
2023-03-03T20:17:22.082Z,52.01
2023-03-03T20:19:48.712Z,52.24
2023-03-03T20:22:15.408Z,52.21
2023-03-03T20:24:41.820Z,52.29
2023-03-03T20:27:08.186Z,52.10
2023-03-03T20:29:34.658Z,52.09
2023-03-03T20:32:01.696Z,52.22
2023-03-03T20:34:28.351Z,52.04
2023-03-03T20:36:55.348Z,52.25
2023-03-03T20:39:21.694Z,52.07
2023-03-03T20:41:48.244Z,52.22
2023-03-03T20:44:14.698Z,52.08
2023-03-03T20:46:41.022Z,52.10
2023-03-03T20:49:07.380Z,52.23
2023-03-03T20:51:34.078Z,52.10
2023-03-03T20:54:00.426Z,52.20
2023-03-03T20:56:27.906Z,52.21
2023-03-03T20:58:55.386Z,52.16
2023-03-03T21:01:22.168Z,52.00
2023-03-03T21:03:48.706Z,52.24
2023-03-03T21:06:15.284Z,52.12
2023-03-03T21:08:41.702Z,52.29
2023-03-03T21:11:08.194Z,52.24
2023-03-03T21:13:34.669Z,52.13
2023-03-03T21:16:01.183Z,52.10
2023-03-03T21:18:28.178Z,52.13
2023-03-03T21:20:54.497Z,52.29
2023-03-03T21:23:21.328Z,52.16
2023-03-03T21:25:48.275Z,52.40
2023-03-03T21:28:15.517Z,52.21
2023-03-03T21:30:42.399Z,52.33
2023-03-03T21:33:09.112Z,52.28
2023-03-03T21:35:35.469Z,52.21
2023-03-03T21:38:01.849Z,52.33
2023-03-03T21:40:28.225Z,52.34
2023-03-03T21:42:54.820Z,52.28
2023-03-03T21:45:21.553Z,52.33
2023-03-03T21:47:48.101Z,52.30
2023-03-03T21:50:14.451Z,52.31
2023-03-03T21:52:40.787Z,52.30
2023-03-03T21:55:07.217Z,52.29
2023-03-03T21:57:33.735Z,52.23
2023-03-03T22:00:00.085Z,52.29
2023-03-03T22:02:27.233Z,52.32
2023-03-03T22:04:53.893Z,52.27
2023-03-03T22:07:20.710Z,52.18
2023-03-03T22:09:47.218Z,52.23
2023-03-03T22:12:13.594Z,52.29
2023-03-03T22:14:40.019Z,52.38
2023-03-03T22:17:06.451Z,52.30
2023-03-03T22:19:32.761Z,52.17
2023-03-03T22:21:59.740Z,52.39
2023-03-03T22:24:26.139Z,52.34
2023-03-03T22:26:52.486Z,52.18
2023-03-03T22:29:19.476Z,52.28
2023-03-03T22:31:45.973Z,52.32
2023-03-03T22:34:12.599Z,52.26
2023-03-03T22:36:38.918Z,52.48
2023-03-03T22:39:05.245Z,52.39
2023-03-03T22:41:31.659Z,52.34
2023-03-03T22:43:58.302Z,52.19
2023-03-03T22:46:24.679Z,52.23
2023-03-03T22:48:51.067Z,52.31
2023-03-03T22:51:17.344Z,52.36
2023-03-03T22:53:43.885Z,52.40
2023-03-03T22:56:10.598Z,52.58
2023-03-03T22:58:37.647Z,52.39
2023-03-03T23:01:03.995Z,52.35
2023-03-03T23:03:30.898Z,52.45
2023-03-03T23:05:57.268Z,52.27
2023-03-03T23:08:23.714Z,52.22
2023-03-03T23:10:50.067Z,52.27
2023-03-03T23:13:16.520Z,52.48
2023-03-03T23:15:42.976Z,52.35
2023-03-03T23:18:09.742Z,52.46
2023-03-03T23:20:36.067Z,52.32
2023-03-03T23:23:02.556Z,52.30
2023-03-03T23:25:28.922Z,52.37
2023-03-03T23:27:55.380Z,52.53
2023-03-03T23:30:21.787Z,52.33
2023-03-03T23:32:48.214Z,52.30
2023-03-03T23:35:14.614Z,52.31
2023-03-03T23:37:40.957Z,52.43
2023-03-03T23:40:07.252Z,52.26
2023-03-03T23:42:33.773Z,52.40
2023-03-03T23:45:00.122Z,52.42
2023-03-03T23:47:26.855Z,52.32
2023-03-03T23:49:53.134Z,52.41
2023-03-03T23:52:19.487Z,52.26
2023-03-03T23:54:46.077Z,52.53
2023-03-03T23:57:12.413Z,52.52
2023-03-03T23:59:38.930Z,52.49
